sensor_id;sensor_type;location;lat;lon;timestamp;P1;durP1;ratioP1;P2;durP2;ratioP2
46551;SDS011;32278;51.810;4.712;2023-04-06T00:00:59;19.17;;;8.73;;
46551;SDS011;32278;51.810;4.712;2023-04-06T00:03:25;15.52;;;7.88;;
46551;SDS011;32278;51.810;4.712;2023-04-06T00:05:51;22.55;;;8.82;;
46551;SDS011;32278;51.810;4.712;2023-04-06T00:08:17;13.98;;;6.95;;
46551;SDS011;32278;51.810;4.712;2023-04-06T00:10:43;16.35;;;7.72;;
46551;SDS011;32278;51.810;4.712;2023-04-06T00:13:09;19.42;;;8.13;;
46551;SDS011;32278;51.810;4.712;2023-04-06T00:15:35;19.00;;;8.50;;
46551;SDS011;32278;51.810;4.712;2023-04-06T00:18:01;18.15;;;8.13;;
46551;SDS011;32278;51.810;4.712;2023-04-06T00:20:27;28.45;;;9.23;;
46551;SDS011;32278;51.810;4.712;2023-04-06T00:22:54;13.50;;;7.05;;
46551;SDS011;32278;51.810;4.712;2023-04-06T00:25:20;21.23;;;8.80;;
46551;SDS011;32278;51.810;4.712;2023-04-06T00:27:46;14.27;;;8.07;;
46551;SDS011;32278;51.810;4.712;2023-04-06T00:30:12;14.80;;;7.85;;
46551;SDS011;32278;51.810;4.712;2023-04-06T00:32:38;17.70;;;7.55;;
46551;SDS011;32278;51.810;4.712;2023-04-06T00:35:04;13.93;;;8.07;;
46551;SDS011;32278;51.810;4.712;2023-04-06T00:37:31;17.63;;;7.28;;
46551;SDS011;32278;51.810;4.712;2023-04-06T00:39:57;22.23;;;8.88;;
46551;SDS011;32278;51.810;4.712;2023-04-06T00:42:23;16.70;;;8.10;;
46551;SDS011;32278;51.810;4.712;2023-04-06T00:44:55;17.85;;;7.70;;
46551;SDS011;32278;51.810;4.712;2023-04-06T00:47:22;18.70;;;7.93;;
46551;SDS011;32278;51.810;4.712;2023-04-06T00:49:49;14.57;;;8.15;;
46551;SDS011;32278;51.810;4.712;2023-04-06T00:52:15;16.00;;;8.48;;
46551;SDS011;32278;51.810;4.712;2023-04-06T00:54:41;15.95;;;8.05;;
46551;SDS011;32278;51.810;4.712;2023-04-06T00:57:08;14.93;;;8.07;;
46551;SDS011;32278;51.810;4.712;2023-04-06T00:59:34;16.10;;;8.20;;
46551;SDS011;32278;51.810;4.712;2023-04-06T01:02:00;14.43;;;7.60;;
46551;SDS011;32278;51.810;4.712;2023-04-06T01:04:26;18.30;;;8.65;;
46551;SDS011;32278;51.810;4.712;2023-04-06T01:06:52;13.35;;;7.80;;
46551;SDS011;32278;51.810;4.712;2023-04-06T01:09:18;16.83;;;7.45;;
46551;SDS011;32278;51.810;4.712;2023-04-06T01:11:44;16.10;;;7.72;;
46551;SDS011;32278;51.810;4.712;2023-04-06T01:14:10;15.07;;;7.78;;
46551;SDS011;32278;51.810;4.712;2023-04-06T01:16:36;14.65;;;8.38;;
46551;SDS011;32278;51.810;4.712;2023-04-06T01:19:09;15.27;;;7.70;;
46551;SDS011;32278;51.810;4.712;2023-04-06T01:21:36;18.60;;;8.23;;
46551;SDS011;32278;51.810;4.712;2023-04-06T01:24:01;17.67;;;7.65;;
46551;SDS011;32278;51.810;4.712;2023-04-06T01:26:27;17.17;;;7.82;;
46551;SDS011;32278;51.810;4.712;2023-04-06T01:28:54;17.77;;;8.48;;
46551;SDS011;32278;51.810;4.712;2023-04-06T01:31:20;16.10;;;7.82;;
46551;SDS011;32278;51.810;4.712;2023-04-06T01:33:47;13.18;;;7.45;;
46551;SDS011;32278;51.810;4.712;2023-04-06T01:36:13;15.80;;;8.52;;
46551;SDS011;32278;51.810;4.712;2023-04-06T01:38:39;17.15;;;8.80;;
46551;SDS011;32278;51.810;4.712;2023-04-06T01:41:06;17.73;;;8.50;;
46551;SDS011;32278;51.810;4.712;2023-04-06T01:43:32;17.10;;;8.02;;
46551;SDS011;32278;51.810;4.712;2023-04-06T01:45:58;20.20;;;9.43;;
46551;SDS011;32278;51.810;4.712;2023-04-06T01:48:25;15.82;;;8.85;;
46551;SDS011;32278;51.810;4.712;2023-04-06T01:50:51;16.38;;;8.23;;
46551;SDS011;32278;51.810;4.712;2023-04-06T01:53:17;14.00;;;8.50;;
46551;SDS011;32278;51.810;4.712;2023-04-06T01:55:43;16.90;;;8.52;;
46551;SDS011;32278;51.810;4.712;2023-04-06T01:58:10;13.75;;;8.00;;
46551;SDS011;32278;51.810;4.712;2023-04-06T02:00:36;18.20;;;9.02;;
46551;SDS011;32278;51.810;4.712;2023-04-06T02:03:02;20.15;;;8.75;;
46551;SDS011;32278;51.810;4.712;2023-04-06T02:05:28;19.88;;;9.70;;
46551;SDS011;32278;51.810;4.712;2023-04-06T02:07:54;18.25;;;8.88;;
46551;SDS011;32278;51.810;4.712;2023-04-06T02:10:21;20.60;;;10.07;;
46551;SDS011;32278;51.810;4.712;2023-04-06T02:12:47;16.90;;;9.13;;
46551;SDS011;32278;51.810;4.712;2023-04-06T02:15:13;19.27;;;8.90;;
46551;SDS011;32278;51.810;4.712;2023-04-06T02:17:40;16.60;;;9.02;;
46551;SDS011;32278;51.810;4.712;2023-04-06T02:20:06;19.48;;;9.13;;
46551;SDS011;32278;51.810;4.712;2023-04-06T02:22:32;20.02;;;9.35;;
46551;SDS011;32278;51.810;4.712;2023-04-06T02:24:58;19.33;;;10.05;;
46551;SDS011;32278;51.810;4.712;2023-04-06T02:27:24;18.40;;;9.25;;
46551;SDS011;32278;51.810;4.712;2023-04-06T02:29:50;22.13;;;10.88;;
46551;SDS011;32278;51.810;4.712;2023-04-06T02:32:16;17.85;;;9.70;;
46551;SDS011;32278;51.810;4.712;2023-04-06T02:34:42;22.15;;;10.02;;
46551;SDS011;32278;51.810;4.712;2023-04-06T02:37:08;19.58;;;10.13;;
46551;SDS011;32278;51.810;4.712;2023-04-06T02:39:34;20.50;;;9.20;;
46551;SDS011;32278;51.810;4.712;2023-04-06T02:42:00;23.02;;;9.68;;
46551;SDS011;32278;51.810;4.712;2023-04-06T02:44:26;22.23;;;11.30;;
46551;SDS011;32278;51.810;4.712;2023-04-06T02:46:52;26.67;;;10.20;;
46551;SDS011;32278;51.810;4.712;2023-04-06T02:49:18;20.95;;;10.02;;
46551;SDS011;32278;51.810;4.712;2023-04-06T02:51:44;20.63;;;9.60;;
46551;SDS011;32278;51.810;4.712;2023-04-06T02:54:10;24.48;;;10.57;;
46551;SDS011;32278;51.810;4.712;2023-04-06T02:56:36;20.70;;;10.32;;
46551;SDS011;32278;51.810;4.712;2023-04-06T02:59:02;23.45;;;10.45;;
46551;SDS011;32278;51.810;4.712;2023-04-06T03:01:28;21.42;;;10.75;;
46551;SDS011;32278;51.810;4.712;2023-04-06T03:03:54;19.90;;;9.60;;
46551;SDS011;32278;51.810;4.712;2023-04-06T03:06:20;18.35;;;10.18;;
46551;SDS011;32278;51.810;4.712;2023-04-06T03:08:46;21.35;;;10.55;;
46551;SDS011;32278;51.810;4.712;2023-04-06T03:11:12;24.75;;;10.48;;
46551;SDS011;32278;51.810;4.712;2023-04-06T03:13:38;25.25;;;11.68;;
46551;SDS011;32278;51.810;4.712;2023-04-06T03:16:04;23.17;;;10.15;;
46551;SDS011;32278;51.810;4.712;2023-04-06T03:18:31;27.20;;;10.88;;
46551;SDS011;32278;51.810;4.712;2023-04-06T03:20:57;21.77;;;10.75;;
46551;SDS011;32278;51.810;4.712;2023-04-06T03:23:25;21.00;;;10.32;;
46551;SDS011;32278;51.810;4.712;2023-04-06T03:25:51;26.10;;;11.40;;
46551;SDS011;32278;51.810;4.712;2023-04-06T03:28:17;20.55;;;10.75;;
46551;SDS011;32278;51.810;4.712;2023-04-06T03:30:43;26.75;;;11.73;;
46551;SDS011;32278;51.810;4.712;2023-04-06T03:33:09;29.75;;;11.90;;
46551;SDS011;32278;51.810;4.712;2023-04-06T03:35:34;26.25;;;10.90;;
46551;SDS011;32278;51.810;4.712;2023-04-06T03:38:01;26.90;;;11.05;;
46551;SDS011;32278;51.810;4.712;2023-04-06T03:40:27;25.20;;;11.82;;
46551;SDS011;32278;51.810;4.712;2023-04-06T03:42:53;26.50;;;11.75;;
46551;SDS011;32278;51.810;4.712;2023-04-06T03:45:19;23.98;;;11.25;;
46551;SDS011;32278;51.810;4.712;2023-04-06T03:47:46;25.08;;;11.48;;
46551;SDS011;32278;51.810;4.712;2023-04-06T03:50:11;26.40;;;11.52;;
46551;SDS011;32278;51.810;4.712;2023-04-06T03:52:37;21.48;;;11.38;;
46551;SDS011;32278;51.810;4.712;2023-04-06T03:55:03;26.95;;;13.43;;
46551;SDS011;32278;51.810;4.712;2023-04-06T03:57:30;23.85;;;11.88;;
46551;SDS011;32278;51.810;4.712;2023-04-06T03:59:56;28.60;;;12.98;;
46551;SDS011;32278;51.810;4.712;2023-04-06T04:02:22;25.20;;;12.00;;
46551;SDS011;32278;51.810;4.712;2023-04-06T04:04:48;26.98;;;11.73;;
46551;SDS011;32278;51.810;4.712;2023-04-06T04:07:14;27.48;;;12.85;;
46551;SDS011;32278;51.810;4.712;2023-04-06T04:09:40;27.90;;;13.07;;
46551;SDS011;32278;51.810;4.712;2023-04-06T04:12:06;25.17;;;11.75;;
46551;SDS011;32278;51.810;4.712;2023-04-06T04:14:32;28.58;;;11.82;;
46551;SDS011;32278;51.810;4.712;2023-04-06T04:16:58;25.50;;;11.75;;
46551;SDS011;32278;51.810;4.712;2023-04-06T04:19:24;27.40;;;13.75;;
46551;SDS011;32278;51.810;4.712;2023-04-06T04:21:50;24.58;;;12.93;;
46551;SDS011;32278;51.810;4.712;2023-04-06T04:24:16;26.58;;;13.10;;
46551;SDS011;32278;51.810;4.712;2023-04-06T04:26:41;25.65;;;11.57;;
46551;SDS011;32278;51.810;4.712;2023-04-06T04:29:08;23.50;;;12.70;;
46551;SDS011;32278;51.810;4.712;2023-04-06T04:31:34;27.73;;;12.80;;
46551;SDS011;32278;51.810;4.712;2023-04-06T04:34:00;24.30;;;12.27;;
46551;SDS011;32278;51.810;4.712;2023-04-06T04:36:26;25.45;;;12.05;;
46551;SDS011;32278;51.810;4.712;2023-04-06T04:38:52;25.23;;;11.98;;
46551;SDS011;32278;51.810;4.712;2023-04-06T04:41:18;26.88;;;12.65;;
46551;SDS011;32278;51.810;4.712;2023-04-06T04:43:44;26.98;;;11.77;;
46551;SDS011;32278;51.810;4.712;2023-04-06T04:46:10;28.48;;;11.60;;
46551;SDS011;32278;51.810;4.712;2023-04-06T04:48:36;22.85;;;11.98;;
46551;SDS011;32278;51.810;4.712;2023-04-06T04:51:03;25.20;;;12.20;;
46551;SDS011;32278;51.810;4.712;2023-04-06T04:53:30;23.17;;;10.90;;
46551;SDS011;32278;51.810;4.712;2023-04-06T04:55:56;23.90;;;12.18;;
46551;SDS011;32278;51.810;4.712;2023-04-06T04:58:22;22.60;;;12.00;;
46551;SDS011;32278;51.810;4.712;2023-04-06T05:00:48;35.42;;;14.23;;
46551;SDS011;32278;51.810;4.712;2023-04-06T05:03:18;32.00;;;14.50;;
46551;SDS011;32278;51.810;4.712;2023-04-06T05:05:45;26.15;;;11.45;;
46551;SDS011;32278;51.810;4.712;2023-04-06T05:08:11;27.55;;;12.35;;
46551;SDS011;32278;51.810;4.712;2023-04-06T05:10:37;29.92;;;13.63;;
46551;SDS011;32278;51.810;4.712;2023-04-06T05:13:03;28.95;;;12.02;;
46551;SDS011;32278;51.810;4.712;2023-04-06T05:15:29;29.20;;;12.00;;
46551;SDS011;32278;51.810;4.712;2023-04-06T05:17:56;26.17;;;12.98;;
46551;SDS011;32278;51.810;4.712;2023-04-06T05:20:22;28.50;;;11.82;;
46551;SDS011;32278;51.810;4.712;2023-04-06T05:22:48;25.98;;;12.52;;
46551;SDS011;32278;51.810;4.712;2023-04-06T05:25:14;28.42;;;12.23;;
46551;SDS011;32278;51.810;4.712;2023-04-06T05:27:40;23.92;;;12.15;;
46551;SDS011;32278;51.810;4.712;2023-04-06T05:30:06;28.13;;;12.55;;
46551;SDS011;32278;51.810;4.712;2023-04-06T05:32:32;24.33;;;12.10;;
46551;SDS011;32278;51.810;4.712;2023-04-06T05:34:58;26.85;;;12.98;;
46551;SDS011;32278;51.810;4.712;2023-04-06T05:37:24;23.08;;;11.73;;
46551;SDS011;32278;51.810;4.712;2023-04-06T05:39:51;30.05;;;12.02;;
46551;SDS011;32278;51.810;4.712;2023-04-06T05:42:17;28.30;;;12.15;;
46551;SDS011;32278;51.810;4.712;2023-04-06T05:44:42;30.83;;;13.55;;
46551;SDS011;32278;51.810;4.712;2023-04-06T05:47:08;24.05;;;12.45;;
46551;SDS011;32278;51.810;4.712;2023-04-06T05:49:34;26.20;;;11.93;;
46551;SDS011;32278;51.810;4.712;2023-04-06T05:52:00;24.52;;;11.98;;
46551;SDS011;32278;51.810;4.712;2023-04-06T05:54:27;29.08;;;13.32;;
46551;SDS011;32278;51.810;4.712;2023-04-06T05:56:53;29.67;;;13.15;;
46551;SDS011;32278;51.810;4.712;2023-04-06T05:59:18;25.65;;;12.18;;
46551;SDS011;32278;51.810;4.712;2023-04-06T06:01:45;26.90;;;11.90;;
46551;SDS011;32278;51.810;4.712;2023-04-06T06:04:11;26.98;;;13.07;;
46551;SDS011;32278;51.810;4.712;2023-04-06T06:06:37;24.65;;;12.20;;
46551;SDS011;32278;51.810;4.712;2023-04-06T06:09:03;23.35;;;11.45;;
46551;SDS011;32278;51.810;4.712;2023-04-06T06:11:29;26.65;;;13.00;;
46551;SDS011;32278;51.810;4.712;2023-04-06T06:13:55;24.98;;;12.75;;
46551;SDS011;32278;51.810;4.712;2023-04-06T06:16:22;26.30;;;12.13;;
46551;SDS011;32278;51.810;4.712;2023-04-06T06:18:47;24.10;;;14.02;;
46551;SDS011;32278;51.810;4.712;2023-04-06T06:21:13;27.60;;;13.68;;
46551;SDS011;32278;51.810;4.712;2023-04-06T06:23:42;24.10;;;12.30;;
46551;SDS011;32278;51.810;4.712;2023-04-06T06:26:08;27.15;;;13.35;;
46551;SDS011;32278;51.810;4.712;2023-04-06T06:28:33;28.90;;;12.85;;
46551;SDS011;32278;51.810;4.712;2023-04-06T06:30:59;28.92;;;13.65;;
46551;SDS011;32278;51.810;4.712;2023-04-06T06:33:26;26.85;;;12.00;;
46551;SDS011;32278;51.810;4.712;2023-04-06T06:35:52;26.13;;;13.23;;
46551;SDS011;32278;51.810;4.712;2023-04-06T06:38:18;25.83;;;13.50;;
46551;SDS011;32278;51.810;4.712;2023-04-06T06:40:46;25.95;;;12.13;;
46551;SDS011;32278;51.810;4.712;2023-04-06T06:43:12;24.58;;;13.07;;
46551;SDS011;32278;51.810;4.712;2023-04-06T06:45:38;29.67;;;13.45;;
46551;SDS011;32278;51.810;4.712;2023-04-06T06:48:04;24.88;;;13.52;;
46551;SDS011;32278;51.810;4.712;2023-04-06T06:50:30;23.95;;;13.13;;
46551;SDS011;32278;51.810;4.712;2023-04-06T06:52:56;27.63;;;13.75;;
46551;SDS011;32278;51.810;4.712;2023-04-06T06:55:22;34.53;;;13.48;;
46551;SDS011;32278;51.810;4.712;2023-04-06T06:57:48;25.90;;;12.63;;
46551;SDS011;32278;51.810;4.712;2023-04-06T07:00:14;32.42;;;13.18;;
46551;SDS011;32278;51.810;4.712;2023-04-06T07:02:40;31.38;;;12.25;;
46551;SDS011;32278;51.810;4.712;2023-04-06T07:05:06;27.63;;;13.45;;
46551;SDS011;32278;51.810;4.712;2023-04-06T07:07:32;32.38;;;13.68;;
46551;SDS011;32278;51.810;4.712;2023-04-06T07:09:59;30.65;;;14.63;;
46551;SDS011;32278;51.810;4.712;2023-04-06T07:12:25;28.52;;;13.93;;
46551;SDS011;32278;51.810;4.712;2023-04-06T07:14:51;29.08;;;12.88;;
46551;SDS011;32278;51.810;4.712;2023-04-06T07:17:17;30.38;;;12.98;;
46551;SDS011;32278;51.810;4.712;2023-04-06T07:19:43;29.65;;;14.00;;
46551;SDS011;32278;51.810;4.712;2023-04-06T07:22:09;27.95;;;13.68;;
46551;SDS011;32278;51.810;4.712;2023-04-06T07:24:35;37.97;;;15.73;;
46551;SDS011;32278;51.810;4.712;2023-04-06T07:27:01;29.98;;;13.85;;
46551;SDS011;32278;51.810;4.712;2023-04-06T07:29:27;29.33;;;13.82;;
46551;SDS011;32278;51.810;4.712;2023-04-06T07:31:53;28.88;;;13.05;;
46551;SDS011;32278;51.810;4.712;2023-04-06T07:34:19;27.17;;;13.68;;
46551;SDS011;32278;51.810;4.712;2023-04-06T07:36:45;27.13;;;13.15;;
46551;SDS011;32278;51.810;4.712;2023-04-06T07:39:11;31.02;;;14.65;;
46551;SDS011;32278;51.810;4.712;2023-04-06T07:41:37;34.88;;;14.95;;
46551;SDS011;32278;51.810;4.712;2023-04-06T07:44:03;33.13;;;14.68;;
46551;SDS011;32278;51.810;4.712;2023-04-06T07:46:30;34.92;;;15.20;;
46551;SDS011;32278;51.810;4.712;2023-04-06T07:48:56;25.73;;;14.32;;
46551;SDS011;32278;51.810;4.712;2023-04-06T07:51:22;31.73;;;14.70;;
46551;SDS011;32278;51.810;4.712;2023-04-06T07:53:49;31.60;;;14.95;;
46551;SDS011;32278;51.810;4.712;2023-04-06T07:56:16;32.75;;;15.68;;
46551;SDS011;32278;51.810;4.712;2023-04-06T07:58:42;35.40;;;15.70;;
46551;SDS011;32278;51.810;4.712;2023-04-06T08:01:08;34.97;;;16.17;;
46551;SDS011;32278;51.810;4.712;2023-04-06T08:03:34;34.97;;;17.20;;
46551;SDS011;32278;51.810;4.712;2023-04-06T08:06:00;33.95;;;16.33;;
46551;SDS011;32278;51.810;4.712;2023-04-06T08:08:27;29.40;;;14.77;;
46551;SDS011;32278;51.810;4.712;2023-04-06T08:10:53;39.78;;;18.23;;
46551;SDS011;32278;51.810;4.712;2023-04-06T08:13:19;39.45;;;16.83;;
46551;SDS011;32278;51.810;4.712;2023-04-06T08:15:45;43.35;;;19.75;;
46551;SDS011;32278;51.810;4.712;2023-04-06T08:18:11;52.75;;;22.92;;
46551;SDS011;32278;51.810;4.712;2023-04-06T08:20:37;58.67;;;21.48;;
46551;SDS011;32278;51.810;4.712;2023-04-06T08:23:03;46.50;;;20.25;;
46551;SDS011;32278;51.810;4.712;2023-04-06T08:25:29;53.17;;;20.67;;
46551;SDS011;32278;51.810;4.712;2023-04-06T08:27:55;50.15;;;20.98;;
46551;SDS011;32278;51.810;4.712;2023-04-06T08:30:21;48.28;;;18.85;;
46551;SDS011;32278;51.810;4.712;2023-04-06T08:32:47;46.70;;;22.20;;
46551;SDS011;32278;51.810;4.712;2023-04-06T08:35:13;45.97;;;19.50;;
46551;SDS011;32278;51.810;4.712;2023-04-06T08:37:39;44.22;;;18.95;;
46551;SDS011;32278;51.810;4.712;2023-04-06T08:40:06;39.08;;;17.65;;
46551;SDS011;32278;51.810;4.712;2023-04-06T08:44:57;47.17;;;16.70;;
46551;SDS011;32278;51.810;4.712;2023-04-06T08:47:24;29.23;;;14.05;;
46551;SDS011;32278;51.810;4.712;2023-04-06T08:49:53;31.58;;;12.70;;
46551;SDS011;32278;51.810;4.712;2023-04-06T08:52:20;26.88;;;12.30;;
46551;SDS011;32278;51.810;4.712;2023-04-06T08:54:46;24.77;;;11.35;;
46551;SDS011;32278;51.810;4.712;2023-04-06T08:57:13;25.08;;;12.02;;
46551;SDS011;32278;51.810;4.712;2023-04-06T08:59:39;28.90;;;11.98;;
46551;SDS011;32278;51.810;4.712;2023-04-06T09:02:05;20.98;;;10.55;;
46551;SDS011;32278;51.810;4.712;2023-04-06T09:04:32;18.10;;;9.27;;
46551;SDS011;32278;51.810;4.712;2023-04-06T09:06:58;24.02;;;10.82;;
46551;SDS011;32278;51.810;4.712;2023-04-06T09:09:25;19.50;;;10.65;;
46551;SDS011;32278;51.810;4.712;2023-04-06T09:14:54;16.35;;;9.48;;
46551;SDS011;32278;51.810;4.712;2023-04-06T09:17:24;16.88;;;9.45;;
46551;SDS011;32278;51.810;4.712;2023-04-06T09:19:50;20.45;;;8.68;;
46551;SDS011;32278;51.810;4.712;2023-04-06T09:22:18;15.32;;;8.13;;
46551;SDS011;32278;51.810;4.712;2023-04-06T09:24:45;13.63;;;8.07;;
46551;SDS011;32278;51.810;4.712;2023-04-06T09:27:12;15.95;;;8.25;;
46551;SDS011;32278;51.810;4.712;2023-04-06T09:29:38;15.93;;;8.07;;
46551;SDS011;32278;51.810;4.712;2023-04-06T09:32:04;12.90;;;6.85;;
46551;SDS011;32278;51.810;4.712;2023-04-06T09:34:31;13.82;;;6.68;;
46551;SDS011;32278;51.810;4.712;2023-04-06T09:36:57;14.43;;;7.40;;
46551;SDS011;32278;51.810;4.712;2023-04-06T09:39:23;14.38;;;7.38;;
46551;SDS011;32278;51.810;4.712;2023-04-06T09:41:51;12.85;;;6.75;;
46551;SDS011;32278;51.810;4.712;2023-04-06T09:44:17;12.07;;;6.35;;
46551;SDS011;32278;51.810;4.712;2023-04-06T09:46:45;10.52;;;6.55;;
46551;SDS011;32278;51.810;4.712;2023-04-06T09:49:11;12.38;;;6.88;;
46551;SDS011;32278;51.810;4.712;2023-04-06T09:51:41;12.20;;;6.30;;
46551;SDS011;32278;51.810;4.712;2023-04-06T09:54:23;13.40;;;7.20;;
46551;SDS011;32278;51.810;4.712;2023-04-06T09:57:03;16.58;;;7.18;;
46551;SDS011;32278;51.810;4.712;2023-04-06T10:02:02;12.88;;;6.65;;
46551;SDS011;32278;51.810;4.712;2023-04-06T10:06:57;13.77;;;6.82;;
46551;SDS011;32278;51.810;4.712;2023-04-06T10:09:24;10.30;;;6.35;;
46551;SDS011;32278;51.810;4.712;2023-04-06T10:11:51;11.52;;;6.80;;
46551;SDS011;32278;51.810;4.712;2023-04-06T10:14:17;12.77;;;7.05;;
46551;SDS011;32278;51.810;4.712;2023-04-06T10:16:43;12.25;;;6.50;;
46551;SDS011;32278;51.810;4.712;2023-04-06T10:19:12;15.80;;;8.55;;
46551;SDS011;32278;51.810;4.712;2023-04-06T10:21:39;16.42;;;8.40;;
46551;SDS011;32278;51.810;4.712;2023-04-06T10:24:09;15.75;;;7.88;;
46551;SDS011;32278;51.810;4.712;2023-04-06T10:26:35;12.05;;;7.60;;
46551;SDS011;32278;51.810;4.712;2023-04-06T10:29:02;16.70;;;8.05;;
46551;SDS011;32278;51.810;4.712;2023-04-06T10:31:28;14.52;;;7.78;;
46551;SDS011;32278;51.810;4.712;2023-04-06T10:36:22;14.93;;;7.38;;
46551;SDS011;32278;51.810;4.712;2023-04-06T10:38:53;11.95;;;6.90;;
46551;SDS011;32278;51.810;4.712;2023-04-06T10:41:20;13.55;;;7.47;;
46551;SDS011;32278;51.810;4.712;2023-04-06T10:43:46;15.27;;;8.50;;
46551;SDS011;32278;51.810;4.712;2023-04-06T10:46:24;19.08;;;8.20;;
46551;SDS011;32278;51.810;4.712;2023-04-06T10:51:19;25.02;;;9.52;;
46551;SDS011;32278;51.810;4.712;2023-04-06T10:53:51;16.60;;;9.23;;
46551;SDS011;32278;51.810;4.712;2023-04-06T10:56:20;17.27;;;9.52;;
46551;SDS011;32278;51.810;4.712;2023-04-06T10:58:51;15.90;;;9.20;;
46551;SDS011;32278;51.810;4.712;2023-04-06T11:01:18;17.67;;;9.55;;
46551;SDS011;32278;51.810;4.712;2023-04-06T11:03:45;18.42;;;9.68;;
46551;SDS011;32278;51.810;4.712;2023-04-06T11:06:17;20.17;;;9.75;;
46551;SDS011;32278;51.810;4.712;2023-04-06T11:08:43;17.27;;;8.90;;
46551;SDS011;32278;51.810;4.712;2023-04-06T11:11:10;14.30;;;8.65;;
46551;SDS011;32278;51.810;4.712;2023-04-06T11:13:48;15.88;;;9.00;;
46551;SDS011;32278;51.810;4.712;2023-04-06T11:16:18;15.32;;;8.30;;
46551;SDS011;32278;51.810;4.712;2023-04-06T11:18:54;13.93;;;8.23;;
46551;SDS011;32278;51.810;4.712;2023-04-06T11:21:38;15.80;;;9.27;;
46551;SDS011;32278;51.810;4.712;2023-04-06T11:24:11;19.30;;;9.20;;
46551;SDS011;32278;51.810;4.712;2023-04-06T11:26:38;15.65;;;8.40;;
46551;SDS011;32278;51.810;4.712;2023-04-06T11:29:05;17.25;;;9.07;;
46551;SDS011;32278;51.810;4.712;2023-04-06T11:31:31;16.75;;;8.48;;
46551;SDS011;32278;51.810;4.712;2023-04-06T11:33:57;18.33;;;9.27;;
46551;SDS011;32278;51.810;4.712;2023-04-06T11:36:26;16.83;;;8.25;;
46551;SDS011;32278;51.810;4.712;2023-04-06T11:38:52;16.58;;;9.10;;
46551;SDS011;32278;51.810;4.712;2023-04-06T11:41:18;15.20;;;8.32;;
46551;SDS011;32278;51.810;4.712;2023-04-06T11:43:51;15.25;;;9.52;;
46551;SDS011;32278;51.810;4.712;2023-04-06T11:46:17;14.52;;;8.80;;
46551;SDS011;32278;51.810;4.712;2023-04-06T11:48:46;14.70;;;8.60;;
46551;SDS011;32278;51.810;4.712;2023-04-06T11:51:12;20.35;;;9.20;;
46551;SDS011;32278;51.810;4.712;2023-04-06T11:53:47;21.77;;;9.48;;
46551;SDS011;32278;51.810;4.712;2023-04-06T11:56:26;16.83;;;8.73;;
46551;SDS011;32278;51.810;4.712;2023-04-06T11:58:57;19.15;;;10.45;;
46551;SDS011;32278;51.810;4.712;2023-04-06T12:01:24;15.80;;;8.73;;
46551;SDS011;32278;51.810;4.712;2023-04-06T12:03:51;16.42;;;8.00;;
46551;SDS011;32278;51.810;4.712;2023-04-06T12:06:17;15.70;;;8.18;;
46551;SDS011;32278;51.810;4.712;2023-04-06T12:08:43;17.15;;;8.70;;
46551;SDS011;32278;51.810;4.712;2023-04-06T12:11:10;20.15;;;9.10;;
46551;SDS011;32278;51.810;4.712;2023-04-06T12:13:37;16.27;;;8.93;;
46551;SDS011;32278;51.810;4.712;2023-04-06T12:16:03;16.67;;;8.48;;
46551;SDS011;32278;51.810;4.712;2023-04-06T12:18:29;19.10;;;9.75;;
46551;SDS011;32278;51.810;4.712;2023-04-06T12:20:55;16.52;;;8.70;;
46551;SDS011;32278;51.810;4.712;2023-04-06T12:23:21;21.48;;;9.88;;
46551;SDS011;32278;51.810;4.712;2023-04-06T12:25:47;19.48;;;9.80;;
46551;SDS011;32278;51.810;4.712;2023-04-06T12:28:13;19.80;;;9.82;;
46551;SDS011;32278;51.810;4.712;2023-04-06T12:30:40;19.70;;;10.20;;
46551;SDS011;32278;51.810;4.712;2023-04-06T12:33:06;15.98;;;9.15;;
46551;SDS011;32278;51.810;4.712;2023-04-06T12:35:36;21.42;;;10.05;;
46551;SDS011;32278;51.810;4.712;2023-04-06T12:38:04;17.00;;;9.77;;
46551;SDS011;32278;51.810;4.712;2023-04-06T12:40:30;24.95;;;10.32;;
46551;SDS011;32278;51.810;4.712;2023-04-06T12:42:56;19.35;;;10.18;;
46551;SDS011;32278;51.810;4.712;2023-04-06T12:45:22;21.92;;;10.60;;
46551;SDS011;32278;51.810;4.712;2023-04-06T12:47:48;23.63;;;10.88;;
46551;SDS011;32278;51.810;4.712;2023-04-06T12:50:14;19.38;;;11.38;;
46551;SDS011;32278;51.810;4.712;2023-04-06T12:52:41;20.23;;;9.90;;
46551;SDS011;32278;51.810;4.712;2023-04-06T12:55:07;28.50;;;11.63;;
46551;SDS011;32278;51.810;4.712;2023-04-06T12:57:33;21.00;;;10.60;;
46551;SDS011;32278;51.810;4.712;2023-04-06T12:59:59;14.80;;;9.10;;
46551;SDS011;32278;51.810;4.712;2023-04-06T13:02:25;20.80;;;11.07;;
46551;SDS011;32278;51.810;4.712;2023-04-06T13:04:52;20.70;;;10.68;;
46551;SDS011;32278;51.810;4.712;2023-04-06T13:07:18;20.63;;;9.73;;
46551;SDS011;32278;51.810;4.712;2023-04-06T13:09:46;20.25;;;10.50;;
46551;SDS011;32278;51.810;4.712;2023-04-06T13:12:14;18.25;;;10.30;;
46551;SDS011;32278;51.810;4.712;2023-04-06T13:14:40;17.98;;;9.63;;
46551;SDS011;32278;51.810;4.712;2023-04-06T13:17:06;20.17;;;10.45;;
46551;SDS011;32278;51.810;4.712;2023-04-06T13:19:32;22.48;;;11.98;;
46551;SDS011;32278;51.810;4.712;2023-04-06T13:21:58;20.25;;;12.02;;
46551;SDS011;32278;51.810;4.712;2023-04-06T13:24:29;19.10;;;11.07;;
46551;SDS011;32278;51.810;4.712;2023-04-06T13:26:55;19.55;;;10.82;;
46551;SDS011;32278;51.810;4.712;2023-04-06T13:29:22;20.17;;;11.68;;
46551;SDS011;32278;51.810;4.712;2023-04-06T13:31:47;19.15;;;11.27;;
46551;SDS011;32278;51.810;4.712;2023-04-06T13:34:13;17.30;;;10.55;;
46551;SDS011;32278;51.810;4.712;2023-04-06T13:36:40;19.80;;;10.13;;
46551;SDS011;32278;51.810;4.712;2023-04-06T13:39:10;21.05;;;11.65;;
46551;SDS011;32278;51.810;4.712;2023-04-06T13:41:36;24.23;;;11.50;;
46551;SDS011;32278;51.810;4.712;2023-04-06T13:44:02;18.98;;;10.98;;
46551;SDS011;32278;51.810;4.712;2023-04-06T13:46:28;19.98;;;11.15;;
46551;SDS011;32278;51.810;4.712;2023-04-06T13:48:54;23.30;;;10.90;;
46551;SDS011;32278;51.810;4.712;2023-04-06T13:51:21;24.20;;;12.73;;
46551;SDS011;32278;51.810;4.712;2023-04-06T13:53:46;26.30;;;12.27;;
46551;SDS011;32278;51.810;4.712;2023-04-06T13:56:15;22.00;;;11.20;;
46551;SDS011;32278;51.810;4.712;2023-04-06T13:58:41;21.40;;;11.80;;
46551;SDS011;32278;51.810;4.712;2023-04-06T14:01:07;21.08;;;10.80;;
46551;SDS011;32278;51.810;4.712;2023-04-06T14:03:34;22.10;;;11.15;;
46551;SDS011;32278;51.810;4.712;2023-04-06T14:06:01;19.38;;;10.35;;
46551;SDS011;32278;51.810;4.712;2023-04-06T14:08:27;19.08;;;11.20;;
46551;SDS011;32278;51.810;4.712;2023-04-06T14:10:53;18.92;;;11.07;;
46551;SDS011;32278;51.810;4.712;2023-04-06T14:13:20;17.88;;;9.98;;
46551;SDS011;32278;51.810;4.712;2023-04-06T14:15:46;20.60;;;10.63;;
46551;SDS011;32278;51.810;4.712;2023-04-06T14:18:12;19.98;;;11.48;;
46551;SDS011;32278;51.810;4.712;2023-04-06T14:20:39;20.38;;;11.07;;
46551;SDS011;32278;51.810;4.712;2023-04-06T14:23:05;22.20;;;12.18;;
46551;SDS011;32278;51.810;4.712;2023-04-06T14:25:31;24.63;;;11.73;;
46551;SDS011;32278;51.810;4.712;2023-04-06T14:27:59;22.40;;;12.95;;
46551;SDS011;32278;51.810;4.712;2023-04-06T14:30:26;25.15;;;12.32;;
46551;SDS011;32278;51.810;4.712;2023-04-06T14:32:52;20.40;;;12.05;;
46551;SDS011;32278;51.810;4.712;2023-04-06T14:35:18;22.13;;;12.40;;
46551;SDS011;32278;51.810;4.712;2023-04-06T14:37:44;25.88;;;13.25;;